Terminal Aerodrome Forecast
Issued by NWS

Home | Current Version | Previous Version | Text Only | Print | Product List | Glossary On
Versions: 1 2 3 4 5 6 7 8 9 10 11 12 13 14 15 16 17
000
FTUS42 KMLB 231732
TAFSFB
TAF
KSFB 231732Z 2318/2418 22010KT P6SM VCTS SCT035CB BKN120
      TEMPO 2319/2321 2SM TSRA BKN025CB
     FM240000 19005KT P6SM VCSH SCT030 BKN060
     FM240800 23005KT P6SM BKN008
     FM241400 26007KT P6SM BKN025=

USA.gov is the U.S. government's official web portal to all federal, state and local government web resources and services.